createdAt,value
2023-12-22T00:02:27.204Z,97571.25
2023-12-22T00:05:00.304Z,97580.78
2023-12-22T00:07:33.245Z,97583.31
2023-12-22T00:10:07.027Z,97562.59
2023-12-22T00:12:40.276Z,97574.91
2023-12-22T00:15:13.117Z,97583.41
2023-12-22T00:17:47.542Z,97600.44
2023-12-22T00:20:20.583Z,97602.06
2023-12-22T00:22:53.420Z,97602.00
2023-12-22T00:25:26.622Z,97596.25
2023-12-22T00:27:59.389Z,97607.25
2023-12-22T00:30:32.271Z,97622.59
2023-12-22T00:33:07.171Z,97613.97
2023-12-22T00:35:40.098Z,97605.03
2023-12-22T00:38:12.945Z,97589.94
2023-12-22T00:40:45.879Z,97582.88
2023-12-22T00:43:18.735Z,97590.38
2023-12-22T00:45:51.588Z,97608.03
2023-12-22T00:48:25.759Z,97602.91
2023-12-22T00:50:58.562Z,97598.09
2023-12-22T00:53:31.355Z,97597.38
2023-12-22T00:56:04.879Z,97592.34
2023-12-22T00:58:37.699Z,97577.63
2023-12-22T01:01:11.110Z,97582.38
2023-12-22T01:03:45.517Z,97594.56
2023-12-22T01:06:18.365Z,97611.50
2023-12-22T01:08:51.763Z,97610.84
2023-12-22T01:11:24.601Z,97611.34
2023-12-22T01:13:57.513Z,97609.16
2023-12-22T01:16:30.632Z,97604.81
2023-12-22T01:19:04.946Z,97596.97
2023-12-22T01:21:37.981Z,97602.63
2023-12-22T01:24:10.802Z,97613.53
2023-12-22T01:26:43.882Z,97624.94
2023-12-22T01:29:16.749Z,97622.56
2023-12-22T01:31:49.630Z,97615.00
2023-12-22T01:34:24.013Z,97619.97
2023-12-22T01:36:56.804Z,97615.16
2023-12-22T01:39:29.639Z,97627.00
2023-12-22T01:42:02.379Z,97629.75
2023-12-22T01:44:35.240Z,97615.09
2023-12-22T01:47:08.084Z,97616.72
2023-12-22T01:49:42.630Z,97620.63
2023-12-22T01:52:15.992Z,97616.28
2023-12-22T01:54:49.089Z,97608.75
2023-12-22T01:57:21.915Z,97611.03
2023-12-22T01:59:54.804Z,97611.88
2023-12-22T02:02:27.625Z,97638.69
2023-12-22T02:05:02.326Z,97638.41
2023-12-22T02:07:35.747Z,97630.03
2023-12-22T02:10:09.816Z,97645.94
2023-12-22T02:12:42.758Z,97649.56
2023-12-22T02:15:15.647Z,97645.72
2023-12-22T02:18:01.033Z,97644.66
2023-12-22T02:20:35.792Z,97645.88
2023-12-22T02:23:10.759Z,97631.31
2023-12-22T02:25:43.714Z,97633.16
2023-12-22T02:28:22.082Z,97660.47
2023-12-22T02:31:01.056Z,97676.31
2023-12-22T02:33:38.470Z,97665.81
2023-12-22T02:36:12.619Z,97667.03
2023-12-22T02:38:48.205Z,97649.41
2023-12-22T02:41:21.449Z,97666.84
2023-12-22T02:43:55.010Z,97653.63
2023-12-22T02:46:27.975Z,97642.16
2023-12-22T02:49:00.847Z,97646.56
2023-12-22T02:51:33.671Z,97633.50
2023-12-22T02:54:08.191Z,97662.03
2023-12-22T02:56:41.033Z,97645.78
2023-12-22T02:59:13.940Z,97659.22
2023-12-22T03:01:46.910Z,97661.25
2023-12-22T03:04:19.887Z,97669.22
2023-12-22T03:06:52.839Z,97668.88
2023-12-22T03:09:26.943Z,97659.09
2023-12-22T03:12:03.024Z,97654.53
2023-12-22T03:14:36.066Z,97658.41
2023-12-22T03:17:10.799Z,97660.28
2023-12-22T03:19:43.684Z,97669.41
2023-12-22T03:22:16.619Z,97666.22
2023-12-22T03:24:50.818Z,97661.81
2023-12-22T03:27:23.592Z,97665.75
2023-12-22T03:29:56.372Z,97651.16
2023-12-22T03:32:29.307Z,97650.75
2023-12-22T03:35:02.223Z,97649.19
2023-12-22T03:37:35.189Z,97643.31
2023-12-22T03:40:11.962Z,97630.94
2023-12-22T03:42:44.756Z,97661.72
2023-12-22T03:45:17.537Z,97661.38
2023-12-22T03:47:50.632Z,97677.94
2023-12-22T03:50:23.712Z,97660.66
2023-12-22T03:52:56.676Z,97668.56
2023-12-22T03:55:30.929Z,97678.41
2023-12-22T03:58:05.774Z,97673.38
2023-12-22T04:00:38.669Z,97662.09
2023-12-22T04:03:11.650Z,97661.78
2023-12-22T04:05:44.802Z,97653.53
2023-12-22T04:08:17.714Z,97659.50
2023-12-22T04:10:51.815Z,97673.31
2023-12-22T04:13:24.711Z,97664.09
2023-12-22T04:15:57.524Z,97662.25
2023-12-22T04:18:30.413Z,97652.44
2023-12-22T04:21:03.833Z,97651.22
2023-12-22T04:23:37.810Z,97659.88
2023-12-22T04:26:12.183Z,97668.59
2023-12-22T04:28:45.229Z,97669.38
2023-12-22T04:31:18.049Z,97681.13
2023-12-22T04:33:50.906Z,97686.28
2023-12-22T04:36:24.201Z,97670.16
2023-12-22T04:38:57.076Z,97669.38
2023-12-22T04:41:31.222Z,97668.63
2023-12-22T04:44:04.642Z,97675.72
2023-12-22T04:46:37.614Z,97679.66
2023-12-22T04:49:10.590Z,97679.28
2023-12-22T04:51:43.596Z,97682.75
2023-12-22T04:54:16.541Z,97679.94
2023-12-22T04:56:50.694Z,97681.25
2023-12-22T04:59:23.681Z,97669.00
2023-12-22T05:01:58.245Z,97688.75
2023-12-22T05:04:31.233Z,97679.13
2023-12-22T05:07:07.962Z,97684.72
2023-12-22T05:09:43.091Z,97687.09
2023-12-22T05:12:17.327Z,97677.28
2023-12-22T05:14:51.150Z,97675.50
2023-12-22T05:17:24.022Z,97672.03
2023-12-22T05:19:59.689Z,97665.25
2023-12-22T05:22:36.115Z,97671.06
2023-12-22T05:25:11.104Z,97671.91
2023-12-22T05:27:45.337Z,97678.56
2023-12-22T05:30:18.438Z,97670.56
2023-12-22T05:32:51.325Z,97679.31
2023-12-22T05:35:24.145Z,97686.69
2023-12-22T05:37:57.093Z,97688.34
2023-12-22T05:40:30.888Z,97675.84
2023-12-22T05:43:05.766Z,97679.88
2023-12-22T05:45:38.511Z,97680.41
2023-12-22T05:48:11.402Z,97688.69
2023-12-22T05:50:44.774Z,97686.72
2023-12-22T05:53:17.553Z,97696.53
2023-12-22T05:55:50.917Z,97693.56
2023-12-22T05:58:25.073Z,97679.38
2023-12-22T06:00:57.956Z,97679.97
2023-12-22T06:03:30.846Z,97682.25
2023-12-22T06:06:06.170Z,97685.38
2023-12-22T06:08:39.265Z,97691.75
2023-12-22T06:11:12.110Z,97689.88
2023-12-22T06:13:46.329Z,97692.94
2023-12-22T06:16:19.610Z,97702.06
2023-12-22T06:18:52.619Z,97708.31
2023-12-22T06:21:26.008Z,97721.69
2023-12-22T06:23:58.941Z,97724.94
2023-12-22T06:26:31.802Z,97734.03
2023-12-22T06:29:05.968Z,97724.06
2023-12-22T06:31:38.902Z,97732.72
2023-12-22T06:34:11.750Z,97736.97
2023-12-22T06:36:44.942Z,97749.28
2023-12-22T06:39:17.807Z,97750.78
2023-12-22T06:41:50.792Z,97749.47
2023-12-22T06:44:28.938Z,97763.00
2023-12-22T06:47:01.803Z,97746.03
2023-12-22T06:49:34.850Z,97747.94
2023-12-22T06:52:07.808Z,97752.19
2023-12-22T06:54:40.680Z,97746.25
2023-12-22T06:59:49.859Z,97752.69
2023-12-22T07:02:26.345Z,97740.41
2023-12-22T07:05:08.611Z,97728.22
2023-12-22T07:07:41.961Z,97726.97
2023-12-22T07:10:15.283Z,97724.56
2023-12-22T07:12:48.222Z,97733.69
2023-12-22T07:15:22.711Z,97732.50
2023-12-22T07:17:55.708Z,97738.44
2023-12-22T07:20:28.590Z,97745.75
2023-12-22T07:23:01.928Z,97755.13
2023-12-22T07:25:39.471Z,97760.22
2023-12-22T07:28:12.406Z,97759.44
2023-12-22T07:30:46.762Z,97762.94
2023-12-22T07:33:20.123Z,97754.53
2023-12-22T07:35:53.153Z,97758.53
2023-12-22T07:38:26.214Z,97764.63
2023-12-22T07:41:02.515Z,97759.81
2023-12-22T07:43:35.788Z,97775.63
2023-12-22T07:46:11.440Z,97806.56
2023-12-22T07:48:46.507Z,97801.25
2023-12-22T07:51:19.946Z,97817.91
2023-12-22T07:53:52.906Z,97803.50
2023-12-22T07:56:26.034Z,97811.81
2023-12-22T07:59:09.226Z,97808.38
2023-12-22T08:01:53.486Z,97823.00
2023-12-22T08:04:26.543Z,97829.31
2023-12-22T08:06:59.806Z,97819.84
2023-12-22T08:09:34.098Z,97804.38
2023-12-22T08:12:07.983Z,97807.63
2023-12-22T08:14:40.930Z,97808.63
2023-12-22T08:17:16.764Z,97815.28
2023-12-22T08:19:51.909Z,97823.47
2023-12-22T08:22:28.210Z,97815.66
2023-12-22T08:25:06.731Z,97834.13
2023-12-22T08:27:39.664Z,97836.94
2023-12-22T08:30:13.181Z,97832.25
2023-12-22T08:32:47.466Z,97839.34
2023-12-22T08:35:20.546Z,97823.59
2023-12-22T08:37:54.064Z,97837.22
2023-12-22T08:40:28.582Z,97830.88
2023-12-22T08:43:02.424Z,97824.56
2023-12-22T08:45:35.450Z,97828.84
2023-12-22T08:48:10.469Z,97833.59
2023-12-22T08:50:44.228Z,97841.19
2023-12-22T08:53:17.022Z,97859.53
2023-12-22T08:55:49.888Z,97854.66
2023-12-22T08:58:25.182Z,97844.72
2023-12-22T09:00:58.273Z,97855.63
2023-12-22T09:03:34.729Z,97859.13
2023-12-22T09:06:09.313Z,97863.72
2023-12-22T09:08:42.197Z,97873.00
2023-12-22T09:11:16.851Z,97884.38
2023-12-22T09:13:49.799Z,97895.59
2023-12-22T09:16:26.223Z,97883.03
2023-12-22T09:19:01.539Z,97882.38
2023-12-22T09:21:34.564Z,97869.72
2023-12-22T09:24:08.360Z,97866.16
2023-12-22T09:26:41.213Z,97874.41
2023-12-22T09:29:14.008Z,97866.47
2023-12-22T09:31:46.834Z,97866.47
2023-12-22T09:34:21.513Z,97873.78
2023-12-22T09:36:54.498Z,97857.78
2023-12-22T09:39:30.099Z,97864.47
2023-12-22T09:42:03.598Z,97866.72
2023-12-22T09:44:41.071Z,97872.19
2023-12-22T09:47:15.373Z,97872.19
2023-12-22T09:49:50.572Z,97872.72
2023-12-22T09:52:24.092Z,97873.50
2023-12-22T09:54:58.114Z,97856.63
2023-12-22T09:57:33.053Z,97858.88
2023-12-22T10:00:09.056Z,97861.31
2023-12-22T10:02:44.272Z,97854.66
2023-12-22T10:05:19.383Z,97847.81
2023-12-22T10:07:53.097Z,97857.69
2023-12-22T10:10:27.569Z,97855.53
2023-12-22T10:13:04.863Z,97852.94
2023-12-22T10:15:42.097Z,97860.38
2023-12-22T10:18:15.770Z,97860.88
2023-12-22T10:20:50.537Z,97849.63
2023-12-22T10:23:23.672Z,97863.22
2023-12-22T10:25:59.281Z,97844.25
2023-12-22T10:28:32.203Z,97842.69
2023-12-22T10:31:08.342Z,97853.06
2023-12-22T10:33:41.226Z,97871.41
2023-12-22T10:36:15.712Z,97871.91
2023-12-22T10:38:48.652Z,97864.97
2023-12-22T10:41:22.429Z,97841.50
2023-12-22T10:43:55.290Z,97829.19
2023-12-22T10:46:28.781Z,97820.53
2023-12-22T10:49:01.871Z,97798.84
2023-12-22T10:51:36.323Z,97803.97
2023-12-22T10:54:09.139Z,97793.31
2023-12-22T10:56:42.634Z,97785.78
2023-12-22T10:59:19.709Z,97787.28
2023-12-22T11:01:54.824Z,97781.50
2023-12-22T11:04:32.046Z,97775.78
2023-12-22T11:07:07.787Z,97776.34
2023-12-22T11:09:45.317Z,97772.25
2023-12-22T11:12:18.787Z,97776.31
2023-12-22T11:14:53.969Z,97762.31
2023-12-22T11:17:28.785Z,97753.28
2023-12-22T11:20:02.553Z,97753.00
2023-12-22T11:22:38.141Z,97729.06
2023-12-22T11:25:14.463Z,97731.66
2023-12-22T11:27:50.465Z,97735.03
2023-12-22T11:34:13.673Z,97724.75
2023-12-22T11:36:50.860Z,97733.84
2023-12-22T11:39:26.622Z,97732.53
2023-12-22T11:42:00.087Z,97733.66
2023-12-22T11:44:33.152Z,97726.53
2023-12-22T11:47:07.443Z,97708.44
2023-12-22T11:49:40.864Z,97705.56
2023-12-22T11:52:15.001Z,97717.19
2023-12-22T11:54:51.605Z,97702.97
2023-12-22T11:57:39.367Z,97688.25
2023-12-22T12:00:40.416Z,97678.78
2023-12-22T12:03:14.140Z,97675.94
2023-12-22T12:05:47.135Z,97666.94
2023-12-22T12:08:31.903Z,97669.38
2023-12-22T12:11:07.940Z,97666.16
2023-12-22T12:13:46.170Z,97658.94
2023-12-22T12:16:22.606Z,97652.66
2023-12-22T12:18:55.806Z,97650.97
2023-12-22T12:21:28.975Z,97652.44
2023-12-22T12:24:01.963Z,97648.00
2023-12-22T12:26:36.876Z,97636.56
2023-12-22T12:29:11.012Z,97628.56
2023-12-22T12:31:45.910Z,97620.34
2023-12-22T12:34:21.945Z,97604.13
2023-12-22T12:36:56.499Z,97606.47
2023-12-22T12:39:33.528Z,97604.47
2023-12-22T12:42:10.137Z,97593.81
2023-12-22T12:44:44.684Z,97588.25
2023-12-22T12:47:18.264Z,97590.25
2023-12-22T12:49:59.479Z,97581.25
2023-12-22T12:52:32.772Z,97592.25
2023-12-22T12:55:06.938Z,97586.69
2023-12-22T12:57:41.271Z,97596.69
2023-12-22T13:00:15.890Z,97598.69
2023-12-22T13:02:48.774Z,97586.94
2023-12-22T13:05:25.043Z,97578.28
2023-12-22T13:08:09.554Z,97592.91
2023-12-22T13:10:43.961Z,97596.69
2023-12-22T13:13:18.297Z,97606.03
2023-12-22T13:15:51.798Z,97593.25
2023-12-22T13:18:25.184Z,97592.16
2023-12-22T13:20:58.129Z,97581.94
2023-12-22T13:23:31.859Z,97574.03
2023-12-22T13:26:07.026Z,97578.91
2023-12-22T13:28:41.526Z,97573.59
2023-12-22T13:31:15.921Z,97571.25
2023-12-22T13:33:50.408Z,97561.16
2023-12-22T13:36:23.272Z,97565.69
2023-12-22T13:38:56.308Z,97542.19
2023-12-22T13:41:29.139Z,97538.63
2023-12-22T13:44:06.858Z,97542.84
2023-12-22T13:46:42.304Z,97554.41
2023-12-22T13:49:15.758Z,97558.28
2023-12-22T13:51:49.008Z,97560.38
2023-12-22T13:54:22.018Z,97562.03
2023-12-22T13:56:54.838Z,97563.72
2023-12-22T13:59:35.568Z,97553.28
2023-12-22T14:02:08.487Z,97539.50
2023-12-22T14:04:41.674Z,97540.28
2023-12-22T14:07:14.511Z,97549.81
2023-12-22T14:09:47.451Z,97538.47
2023-12-22T14:12:25.013Z,97546.00
2023-12-22T14:15:03.567Z,97547.00
2023-12-22T14:17:37.337Z,97557.13
2023-12-22T14:20:12.066Z,97550.78
2023-12-22T14:22:45.008Z,97551.66
2023-12-22T14:25:17.945Z,97564.78
2023-12-22T14:27:50.964Z,97560.47
2023-12-22T14:30:25.496Z,97547.69
2023-12-22T14:32:58.386Z,97548.81
2023-12-22T14:35:31.232Z,97565.00
2023-12-22T14:38:04.152Z,97574.13
2023-12-22T14:40:37.092Z,97571.81
2023-12-22T14:43:09.913Z,97577.78
2023-12-22T14:45:44.110Z,97578.34
2023-12-22T14:48:17.103Z,97568.13
2023-12-22T14:50:50.120Z,97574.59
2023-12-22T14:53:22.939Z,97573.34
2023-12-22T14:55:58.338Z,97583.91
2023-12-22T14:58:31.473Z,97583.88
2023-12-22T15:01:05.847Z,97588.00
2023-12-22T15:03:38.827Z,97589.53
2023-12-22T15:06:14.190Z,97578.06
2023-12-22T15:08:47.731Z,97589.53
2023-12-22T15:11:20.626Z,97595.16
2023-12-22T15:13:53.630Z,97607.72
2023-12-22T15:16:27.885Z,97613.19
2023-12-22T15:19:00.729Z,97615.97
2023-12-22T15:21:33.601Z,97622.09
2023-12-22T15:24:08.319Z,97633.78
2023-12-22T15:26:41.256Z,97635.31
2023-12-22T15:29:14.279Z,97618.75
2023-12-22T15:31:51.096Z,97630.31
2023-12-22T15:34:25.246Z,97619.53
2023-12-22T15:36:59.370Z,97614.66
2023-12-22T15:39:32.524Z,97627.44
2023-12-22T15:42:05.606Z,97631.88
2023-12-22T15:44:41.353Z,97631.22
2023-12-22T15:47:15.789Z,97630.31
2023-12-22T15:49:48.890Z,97626.53
2023-12-22T15:52:21.924Z,97622.75
2023-12-22T15:54:55.400Z,97610.53
2023-12-22T15:57:28.403Z,97611.56
2023-12-22T16:00:01.359Z,97614.72
2023-12-22T16:02:44.102Z,97623.41
2023-12-22T16:05:17.171Z,97615.72
2023-12-22T16:07:50.409Z,97625.34
2023-12-22T16:10:24.832Z,97642.13
2023-12-22T16:12:57.782Z,97649.72
2023-12-22T16:15:30.767Z,97645.72
2023-12-22T16:18:09.956Z,97647.38
2023-12-22T16:20:43.171Z,97643.78
2023-12-22T16:23:16.395Z,97653.38
2023-12-22T16:25:59.848Z,97645.59
2023-12-22T16:28:35.194Z,97639.56
2023-12-22T16:31:14.349Z,97638.03
2023-12-22T16:33:49.115Z,97642.78
2023-12-22T16:36:23.767Z,97646.66
2023-12-22T16:38:56.656Z,97640.19
2023-12-22T16:41:32.763Z,97641.16
2023-12-22T16:44:06.008Z,97641.69
2023-12-22T16:46:39.087Z,97635.88
2023-12-22T16:49:13.541Z,97647.25
2023-12-22T16:51:46.595Z,97639.69
2023-12-22T16:54:19.466Z,97650.44
2023-12-22T16:56:52.516Z,97645.84
2023-12-22T16:59:26.788Z,97641.88
2023-12-22T17:02:13.889Z,97649.47
2023-12-22T17:04:54.085Z,97659.94
2023-12-22T17:07:27.531Z,97653.94
2023-12-22T17:10:01.843Z,97667.19
2023-12-22T17:12:34.800Z,97660.34
2023-12-22T17:15:10.265Z,97643.50
2023-12-22T17:17:43.843Z,97672.53
2023-12-22T17:20:18.629Z,97669.09
2023-12-22T17:22:51.862Z,97678.97
2023-12-22T17:25:24.903Z,97683.72
2023-12-22T17:27:57.782Z,97684.09
2023-12-22T17:30:30.644Z,97675.53
2023-12-22T17:33:03.537Z,97666.44
2023-12-22T17:35:37.874Z,97671.06
2023-12-22T17:38:10.703Z,97682.47
2023-12-22T17:40:43.647Z,97688.50
2023-12-22T17:43:16.898Z,97686.28
2023-12-22T17:45:49.810Z,97690.53
2023-12-22T17:48:22.911Z,97697.00
2023-12-22T17:50:58.607Z,97687.34
2023-12-22T17:53:31.542Z,97690.31
2023-12-22T17:56:04.777Z,97691.63
2023-12-22T17:58:38.048Z,97685.72
2023-12-22T18:01:10.963Z,97683.13
2023-12-22T18:03:43.896Z,97695.63
2023-12-22T18:06:20.797Z,97690.72
2023-12-22T18:08:53.812Z,97701.03
2023-12-22T18:11:27.050Z,97707.53
2023-12-22T18:14:00.029Z,97687.44
2023-12-22T18:16:39.573Z,97687.88
2023-12-22T18:19:13.501Z,97692.53
2023-12-22T18:21:47.893Z,97688.88
2023-12-22T18:24:20.917Z,97695.66
2023-12-22T18:26:53.716Z,97689.88
2023-12-22T18:29:26.594Z,97712.53
2023-12-22T18:31:59.529Z,97713.44
2023-12-22T18:34:32.640Z,97720.78
2023-12-22T18:37:06.964Z,97733.03
2023-12-22T18:39:39.753Z,97730.09
2023-12-22T18:42:12.531Z,97724.53
2023-12-22T18:44:45.607Z,97710.38
2023-12-22T18:47:25.832Z,97730.50
2023-12-22T18:49:58.798Z,97718.22
2023-12-22T18:52:33.038Z,97720.06
2023-12-22T18:55:06.868Z,97730.31
2023-12-22T18:58:47.715Z,97722.00
2023-12-22T19:01:29.414Z,97721.56
2023-12-22T19:04:08.592Z,97717.91
2023-12-22T19:06:41.575Z,97717.00
2023-12-22T19:09:16.017Z,97721.69
2023-12-22T19:11:49.344Z,97733.03
2023-12-22T19:14:22.375Z,97738.16
2023-12-22T19:16:55.367Z,97748.50
2023-12-22T19:19:27.476Z,97750.19
2023-12-22T19:22:01.749Z,97760.00
2023-12-22T19:24:36.006Z,97769.22
2023-12-22T19:27:08.961Z,97750.53
2023-12-22T19:29:41.746Z,97747.25
2023-12-22T19:32:14.707Z,97745.78
2023-12-22T19:34:49.904Z,97744.81
2023-12-22T19:37:23.566Z,97753.78
2023-12-22T19:39:57.812Z,97756.34
2023-12-22T19:42:31.699Z,97770.47
2023-12-22T19:45:05.438Z,97757.59
2023-12-22T19:47:52.343Z,97768.72
2023-12-22T19:51:32.463Z,97777.50
2023-12-22T19:54:12.267Z,97777.72
2023-12-22T19:56:48.593Z,97774.59
2023-12-22T19:59:29.993Z,97765.16
2023-12-22T20:02:03.355Z,97778.50
2023-12-22T20:04:40.800Z,97764.28
2023-12-22T20:07:14.079Z,97766.81
2023-12-22T20:10:16.054Z,97768.59
2023-12-22T20:13:05.526Z,97781.84
2023-12-22T20:15:40.236Z,97788.53
2023-12-22T20:18:24.484Z,97776.50
2023-12-22T20:24:04.249Z,97815.66
2023-12-22T20:26:37.587Z,97822.88
2023-12-22T20:29:43.286Z,97839.22
2023-12-22T20:32:16.435Z,97830.56
2023-12-22T20:37:53.472Z,97825.22
2023-12-22T20:40:29.549Z,97827.31
2023-12-22T20:46:06.622Z,97833.66
2023-12-22T20:49:06.693Z,97830.88
2023-12-22T20:51:59.749Z,97843.13
2023-12-22T20:54:38.463Z,97837.78
2023-12-22T20:57:11.622Z,97841.91
2023-12-22T20:59:50.525Z,97841.13
2023-12-22T21:02:26.439Z,97843.91
2023-12-22T21:05:03.808Z,97846.91
2023-12-22T21:07:36.964Z,97851.91
2023-12-22T21:10:16.068Z,97852.69
2023-12-22T21:12:48.437Z,97845.25
2023-12-22T21:15:23.938Z,97847.25
2023-12-22T21:18:00.469Z,97841.44
2023-12-22T21:20:48.510Z,97858.03
2023-12-22T21:23:21.591Z,97833.44
2023-12-22T21:25:58.447Z,97842.22
2023-12-22T21:28:31.442Z,97841.22
2023-12-22T21:31:08.954Z,97838.81
2023-12-22T21:33:43.312Z,97843.81
2023-12-22T21:36:24.015Z,97855.34
2023-12-22T21:38:56.909Z,97839.47
2023-12-22T21:41:29.884Z,97827.22
2023-12-22T21:44:03.613Z,97826.13
2023-12-22T21:46:43.696Z,97829.00
2023-12-22T21:49:18.065Z,97823.09
2023-12-22T21:51:50.964Z,97819.31
2023-12-22T21:54:25.496Z,97821.53
2023-12-22T21:56:59.946Z,97814.84
2023-12-22T21:59:32.818Z,97834.97
2023-12-22T22:02:05.921Z,97830.97
2023-12-22T22:04:41.506Z,97813.81
2023-12-22T22:07:14.641Z,97836.06
2023-12-22T22:09:47.505Z,97827.75
2023-12-22T22:12:20.388Z,97834.75
2023-12-22T22:14:53.425Z,97854.22
2023-12-22T22:17:29.037Z,97835.44
2023-12-22T22:20:03.671Z,97846.03
2023-12-22T22:22:36.700Z,97849.22
2023-12-22T22:25:09.993Z,97858.03
2023-12-22T22:27:45.329Z,97861.81
2023-12-22T22:30:18.569Z,97884.16
2023-12-22T22:32:51.516Z,97868.16
2023-12-22T22:35:25.898Z,97881.63
2023-12-22T22:37:58.881Z,97883.72
2023-12-22T22:40:32.382Z,97906.44
2023-12-22T22:43:05.868Z,97884.59
2023-12-22T22:45:38.742Z,97885.50
2023-12-22T22:48:11.723Z,97883.50
2023-12-22T22:50:45.911Z,97888.28
2023-12-22T22:53:19.103Z,97900.75
2023-12-22T22:55:53.487Z,97884.72
2023-12-22T22:58:27.254Z,97881.13
2023-12-22T23:01:00.329Z,97858.75
2023-12-22T23:03:34.252Z,97856.34
2023-12-22T23:06:11.120Z,97855.53
2023-12-22T23:08:44.434Z,97894.84
2023-12-22T23:11:17.357Z,97894.66
2023-12-22T23:13:50.378Z,97894.50
2023-12-22T23:16:23.172Z,97905.06
2023-12-22T23:18:56.963Z,97898.88
2023-12-22T23:21:31.176Z,97926.25
2023-12-22T23:24:05.681Z,97891.09
2023-12-22T23:26:41.369Z,97908.75
2023-12-22T23:29:14.269Z,97924.81
2023-12-22T23:31:47.277Z,97913.91
2023-12-22T23:34:20.056Z,97925.69
2023-12-22T23:36:54.339Z,97937.38
2023-12-22T23:39:27.318Z,97950.19
2023-12-22T23:42:00.325Z,97956.44
2023-12-22T23:44:33.174Z,97962.56
2023-12-22T23:47:06.284Z,97959.09
2023-12-22T23:49:39.156Z,97980.00
2023-12-22T23:52:13.555Z,97972.53
2023-12-22T23:54:46.353Z,97981.44
2023-12-22T23:57:19.227Z,97976.00
2023-12-22T23:59:52.176Z,97980.19
